Time;durP1;ratioP1;P1;durP2;ratioP2;P2;SDS_P1;SDS_P2;PMS_P1;PMS_P2;Temp;Humidity;BMP_temperature;BMP_pressure;BME280_temperature;BME280_humidity;BME280_pressure;Samples;Min_cycle;Max_cycle;Signal;HPM_P1;HPM_P2
2024/03/15 00:02:53;;;;;;;44.33;36.30;;;;;;;;;;10127650;28;20049;-75
2024/03/15 00:07:47;;;;;;;41.78;33.45;;;;;;;;;;10146752;28;20048;-74
2024/03/15 00:12:41;;;;;;;37.83;32.80;;;;;;;;;;10146148;28;20123;-74
2024/03/15 00:17:36;;;;;;;41.40;34.05;;;;;;;;;;10150020;28;20107;-75
2024/03/15 00:22:30;;;;;;;42.70;33.67;;;;;;;;;;10149710;28;20049;-75
2024/03/15 00:27:25;;;;;;;40.70;33.97;;;;;;;;;;10149759;28;20041;-76
2024/03/15 00:32:18;;;;;;;45.17;35.28;;;;;;;;;;10145059;28;20056;-74
2024/03/15 00:37:12;;;;;;;38.25;31.40;;;;;;;;;;10144295;28;20050;-75
2024/03/15 00:42:06;;;;;;;41.78;31.45;;;;;;;;;;10145952;28;20064;-75
2024/03/15 00:47:01;;;;;;;31.17;26.00;;;;;;;;;;10145910;28;20102;-75
2024/03/15 00:51:57;;;;;;;39.47;28.45;;;;;;;;;;10144927;28;20051;-75
2024/03/15 00:56:52;;;;;;;41.00;27.23;;;;;;;;;;10145871;28;20481;-75
2024/03/15 01:01:46;;;;;;;31.25;26.52;;;;;;;;;;10145676;28;20052;-75
2024/03/15 01:06:40;;;;;;;33.10;23.90;;;;;;;;;;10144955;28;20045;-76
2024/03/15 01:11:34;;;;;;;28.50;23.45;;;;;;;;;;10143727;28;20131;-75
2024/03/15 01:16:27;;;;;;;25.73;20.98;;;;;;;;;;10145119;28;20044;-74
2024/03/15 01:21:26;;;;;;;26.48;20.35;;;;;;;;;;10141255;28;20588;-75
2024/03/15 01:26:35;;;;;;;26.10;20.30;;;;;;;;;;10142200;28;20071;-75
2024/03/15 01:31:30;;;;;;;33.13;23.27;;;;;;;;;;10144186;28;20053;-75
2024/03/15 01:36:24;;;;;;;28.85;23.80;;;;;;;;;;10143483;28;20048;-75
2024/03/15 01:41:18;;;;;;;31.95;26.30;;;;;;;;;;10142042;28;20056;-75
2024/03/15 01:46:12;;;;;;;41.05;25.65;;;;;;;;;;10143215;28;20044;-75
2024/03/15 01:51:06;;;;;;;32.33;25.70;;;;;;;;;;10143095;28;20115;-77
2024/03/15 01:56:02;;;;;;;40.17;32.35;;;;;;;;;;10124529;28;20122;-77
2024/03/15 02:00:56;;;;;;;36.38;31.55;;;;;;;;;;10144196;28;20052;-75
2024/03/15 02:05:51;;;;;;;41.13;33.80;;;;;;;;;;10141337;28;20048;-75
2024/03/15 02:10:46;;;;;;;47.90;34.92;;;;;;;;;;10141530;28;20049;-75
2024/03/15 02:15:41;;;;;;;40.85;32.55;;;;;;;;;;10141939;28;20064;-76
2024/03/15 02:20:37;;;;;;;37.47;30.65;;;;;;;;;;10142290;28;20048;-76
2024/03/15 02:25:31;;;;;;;39.20;28.40;;;;;;;;;;10141334;28;20088;-75
2024/03/15 02:30:25;;;;;;;29.88;23.45;;;;;;;;;;10143611;28;20044;-75
2024/03/15 02:35:19;;;;;;;32.97;25.65;;;;;;;;;;10134538;28;20094;-74
2024/03/15 02:40:24;;;;;;;43.70;30.23;;;;;;;;;;10141885;28;20055;-74
2024/03/15 02:45:21;;;;;;;32.90;27.80;;;;;;;;;;10140993;28;20146;-75
2024/03/15 02:50:17;;;;;;;33.80;27.85;;;;;;;;;;10141191;28;20052;-75
2024/03/15 02:55:11;;;;;;;35.25;29.05;;;;;;;;;;10140304;28;20061;-75
2024/03/15 03:00:09;;;;;;;35.83;29.35;;;;;;;;;;10140562;28;20488;-74
2024/03/15 03:05:07;;;;;;;32.78;24.95;;;;;;;;;;10141735;28;20056;-75
2024/03/15 03:10:00;;;;;;;33.97;25.90;;;;;;;;;;10140760;28;20453;-75
2024/03/15 03:14:54;;;;;;;33.10;26.10;;;;;;;;;;10140181;28;20060;-75
2024/03/15 03:19:49;;;;;;;36.78;25.08;;;;;;;;;;10141687;28;20503;-75
2024/03/15 03:24:42;;;;;;;32.63;26.67;;;;;;;;;;10140172;28;20135;-75
2024/03/15 03:29:38;;;;;;;31.60;25.48;;;;;;;;;;10140501;28;20048;-75
2024/03/15 03:34:33;;;;;;;30.45;23.42;;;;;;;;;;10137631;28;20052;-75
2024/03/15 03:39:27;;;;;;;28.50;21.40;;;;;;;;;;10139255;28;20052;-75
2024/03/15 03:44:21;;;;;;;28.20;20.05;;;;;;;;;;10140560;28;20056;-75
2024/03/15 03:49:16;;;;;;;26.35;20.45;;;;;;;;;;10141743;28;20063;-75
2024/03/15 03:54:14;;;;;;;22.95;17.38;;;;;;;;;;10139322;28;20078;-75
2024/03/15 03:59:08;;;;;;;17.67;14.40;;;;;;;;;;10141341;28;21451;-74
2024/03/15 04:04:06;;;;;;;18.52;13.82;;;;;;;;;;10132644;28;20079;-74
2024/03/15 04:09:01;;;;;;;16.08;11.68;;;;;;;;;;10147565;28;20059;-74
2024/03/15 04:13:55;;;;;;;11.80;9.07;;;;;;;;;;10147336;28;20071;-74
2024/03/15 04:18:51;;;;;;;11.55;9.15;;;;;;;;;;10146320;28;20041;-74
2024/03/15 04:23:46;;;;;;;13.90;8.18;;;;;;;;;;10145931;28;20049;-74
2024/03/15 04:28:41;;;;;;;11.57;10.38;;;;;;;;;;10146273;28;20040;-74
2024/03/15 04:33:37;;;;;;;13.23;8.20;;;;;;;;;;10148574;28;20055;-74
2024/03/15 04:38:34;;;;;;;9.75;8.63;;;;;;;;;;10146697;28;20052;-74
2024/03/15 04:43:27;;;;;;;11.10;7.78;;;;;;;;;;10146229;28;20075;-75
2024/03/15 04:48:23;;;;;;;14.48;8.30;;;;;;;;;;10145162;28;20136;-75
2024/03/15 04:53:17;;;;;;;13.82;9.55;;;;;;;;;;10145413;28;20140;-75
2024/03/15 04:58:12;;;;;;;17.95;11.93;;;;;;;;;;10144681;28;20057;-75
2024/03/15 05:03:05;;;;;;;18.40;15.75;;;;;;;;;;10144550;28;20087;-75
2024/03/15 05:08:00;;;;;;;19.92;15.32;;;;;;;;;;10145309;28;20514;-76
2024/03/15 05:12:53;;;;;;;25.08;19.70;;;;;;;;;;10145449;28;20037;-75
2024/03/15 05:17:47;;;;;;;23.30;16.95;;;;;;;;;;10143649;28;20052;-76
2024/03/15 05:22:44;;;;;;;18.30;13.55;;;;;;;;;;10145185;28;20066;-75
2024/03/15 05:27:40;;;;;;;40.90;35.03;;;;;;;;;;10143458;28;20102;-76
2024/03/15 05:32:34;;;;;;;30.08;22.88;;;;;;;;;;10139459;28;20095;-76
2024/03/15 05:37:28;;;;;;;30.98;21.77;;;;;;;;;;10140710;28;20059;-75
2024/03/15 05:42:22;;;;;;;38.15;30.88;;;;;;;;;;10146342;28;20083;-75
2024/03/15 05:47:16;;;;;;;23.40;17.00;;;;;;;;;;10146671;28;20123;-75
2024/03/15 05:52:14;;;;;;;17.67;14.80;;;;;;;;;;10146549;28;20052;-77
2024/03/15 05:57:08;;;;;;;19.88;14.68;;;;;;;;;;10145093;28;20080;-78
2024/03/15 06:02:02;;;;;;;15.48;12.18;;;;;;;;;;10145622;28;20131;-83
2024/03/15 06:06:56;;;;;;;19.23;13.18;;;;;;;;;;10145956;28;20048;-78
2024/03/15 06:11:51;;;;;;;20.02;16.67;;;;;;;;;;10134766;28;20052;-78
2024/03/15 06:16:46;;;;;;;22.23;17.40;;;;;;;;;;10143732;28;20052;-78
2024/03/15 06:21:39;;;;;;;17.15;14.57;;;;;;;;;;10143604;28;20131;-78
2024/03/15 06:26:33;;;;;;;25.30;14.15;;;;;;;;;;10143173;28;20500;-78
2024/03/15 06:31:27;;;;;;;18.90;14.32;;;;;;;;;;10145447;28;20118;-78
2024/03/15 06:36:29;;;;;;;26.10;16.80;;;;;;;;;;10144932;28;20102;-78
2024/03/15 06:46:29;;;;;;;25.50;16.77;;;;;;;;;;10118376;28;20049;-78
2024/03/15 06:56:41;;;;;;;23.17;15.90;;;;;;;;;;10143394;28;20060;-78
2024/03/15 07:01:35;;;;;;;17.75;14.18;;;;;;;;;;10141991;28;20087;-78
2024/03/15 07:06:30;;;;;;;24.05;15.70;;;;;;;;;;10141924;28;20056;-81
2024/03/15 07:11:32;;;;;;;18.95;14.85;;;;;;;;;;10132494;28;20048;-75
2024/03/15 07:16:28;;;;;;;21.42;15.00;;;;;;;;;;10129629;28;20064;-75
2024/03/15 07:21:24;;;;;;;21.67;15.07;;;;;;;;;;10138395;28;20094;-77
2024/03/15 07:26:19;;;;;;;21.23;13.38;;;;;;;;;;10143715;28;20465;-76
2024/03/15 07:31:12;;;;;;;20.10;12.45;;;;;;;;;;10143933;28;20090;-77
2024/03/15 07:36:07;;;;;;;20.30;15.82;;;;;;;;;;10143424;28;20053;-76
2024/03/15 07:41:02;;;;;;;16.30;14.10;;;;;;;;;;10147623;28;20052;-76
2024/03/15 07:45:56;;;;;;;19.70;12.80;;;;;;;;;;10149570;28;20078;-76
2024/03/15 07:50:53;;;;;;;20.90;14.57;;;;;;;;;;10130014;28;20075;-76
2024/03/15 07:55:50;;;;;;;19.40;14.15;;;;;;;;;;10144801;28;20466;-76
2024/03/15 08:00:44;;;;;;;18.63;14.07;;;;;;;;;;10136306;28;20052;-77
2024/03/15 08:05:39;;;;;;;19.75;13.38;;;;;;;;;;10146711;28;20052;-81
2024/03/15 08:10:33;;;;;;;19.90;13.90;;;;;;;;;;10145073;28;20151;-82
2024/03/15 08:15:32;;;;;;;14.70;12.35;;;;;;;;;;10145749;28;20492;-80
2024/03/15 08:20:27;;;;;;;16.60;13.27;;;;;;;;;;10145045;28;20056;-80
2024/03/15 08:25:20;;;;;;;21.73;13.98;;;;;;;;;;10143056;28;20090;-81
2024/03/15 08:30:14;;;;;;;22.92;13.02;;;;;;;;;;10138007;28;20048;-82
2024/03/15 08:35:09;;;;;;;23.25;14.75;;;;;;;;;;10142275;28;20053;-82
2024/03/15 08:40:05;;;;;;;17.67;14.25;;;;;;;;;;10141777;28;20075;-81
2024/03/15 08:45:00;;;;;;;19.95;13.55;;;;;;;;;;10145177;28;20047;-81
2024/03/15 08:49:54;;;;;;;17.10;14.70;;;;;;;;;;10143196;28;20048;-80
2024/03/15 08:54:49;;;;;;;17.10;14.32;;;;;;;;;;10145191;28;20143;-79
2024/03/15 08:59:45;;;;;;;20.63;15.63;;;;;;;;;;10138210;28;20044;-80
2024/03/15 09:04:39;;;;;;;15.70;14.00;;;;;;;;;;10150385;28;20045;-80
2024/03/15 09:09:33;;;;;;;14.18;11.35;;;;;;;;;;10144683;28;20128;-80
2024/03/15 09:14:29;;;;;;;13.07;11.15;;;;;;;;;;10143221;28;20139;-80
2024/03/15 09:19:22;;;;;;;15.65;11.57;;;;;;;;;;10144089;28;20045;-81
2024/03/15 09:24:18;;;;;;;16.95;14.10;;;;;;;;;;10144239;28;20469;-80
2024/03/15 09:29:12;;;;;;;17.80;13.10;;;;;;;;;;10141780;28;20052;-80
2024/03/15 09:34:05;;;;;;;17.58;13.80;;;;;;;;;;10131703;28;20048;-81
2024/03/15 09:38:59;;;;;;;18.35;15.07;;;;;;;;;;10143719;28;20068;-78
2024/03/15 09:43:54;;;;;;;16.15;13.90;;;;;;;;;;10141497;28;20068;-77
2024/03/15 09:48:49;;;;;;;21.38;16.75;;;;;;;;;;10143415;28;20094;-76
2024/03/15 09:53:47;;;;;;;18.90;15.18;;;;;;;;;;10141322;28;20054;-77
2024/03/15 09:58:50;;;;;;;18.77;15.30;;;;;;;;;;10140342;28;20052;-77
2024/03/15 10:03:48;;;;;;;18.02;15.57;;;;;;;;;;10137078;28;20102;-77
2024/03/15 10:08:43;;;;;;;;;;;;;;;;;;10141001;28;20467;-75
2024/03/15 10:13:36;;;;;;;18.48;14.57;;;;;;;;;;10140500;28;19920;-75
2024/03/15 10:18:34;;;;;;;20.98;16.15;;;;;;;;;;10138379;28;20049;-75
2024/03/15 10:23:28;;;;;;;15.73;14.02;;;;;;;;;;10137574;28;20083;-75
2024/03/15 10:28:22;;;;;;;19.95;14.73;;;;;;;;;;10139894;28;20063;-75
2024/03/15 10:33:16;;;;;;;20.35;15.27;;;;;;;;;;10144325;28;20044;-76
2024/03/15 10:38:12;;;;;;;17.60;14.05;;;;;;;;;;10142456;28;20056;-76
2024/03/15 10:43:08;;;;;;;19.10;14.15;;;;;;;;;;10139784;28;20053;-74
2024/03/15 10:48:09;;;;;;;23.83;13.55;;;;;;;;;;10142835;28;20106;-74
2024/03/15 10:53:08;;;;;;;21.52;16.52;;;;;;;;;;10141376;28;20408;-74
2024/03/15 10:58:04;;;;;;;18.02;14.68;;;;;;;;;;10122636;28;21002;-74
2024/03/15 11:03:21;;;;;;;22.60;14.32;;;;;;;;;;10140450;28;20063;-75
2024/03/15 11:08:21;;;;;;;27.80;13.95;;;;;;;;;;10140571;28;20060;-77
2024/03/15 11:13:39;;;;;;;18.08;13.65;;;;;;;;;;10142915;28;20055;-75
2024/03/15 11:18:37;;;;;;;17.92;12.70;;;;;;;;;;10154422;28;20484;-76
2024/03/15 11:23:35;;;;;;;17.77;12.27;;;;;;;;;;10152903;28;20496;-76
2024/03/15 11:28:32;;;;;;;13.38;10.95;;;;;;;;;;10153391;28;20059;-76
2024/03/15 11:33:27;;;;;;;16.33;11.38;;;;;;;;;;10146835;28;20109;-76
2024/03/15 11:38:21;;;;;;;14.90;11.80;;;;;;;;;;10150582;28;20056;-75
2024/03/15 11:43:19;;;;;;;13.10;11.57;;;;;;;;;;10152694;28;20502;-75
2024/03/15 11:48:16;;;;;;;10.25;7.72;;;;;;;;;;10153432;28;20044;-75
2024/03/15 11:53:12;;;;;;;9.27;7.83;;;;;;;;;;10152113;28;20060;-76
2024/03/15 11:58:16;;;;;;;11.18;9.90;;;;;;;;;;10154484;28;20789;-75
2024/03/15 12:03:11;;;;;;;15.57;9.90;;;;;;;;;;10153986;28;20396;-75
2024/03/15 12:08:12;;;;;;;14.05;10.85;;;;;;;;;;10151618;28;20056;-75
2024/03/15 12:13:25;;;;;;;11.55;9.45;;;;;;;;;;10153425;28;20062;-75
2024/03/15 12:18:22;;;;;;;9.88;8.88;;;;;;;;;;10153758;28;20056;-75
2024/03/15 12:23:17;;;;;;;9.60;8.60;;;;;;;;;;10154122;28;20063;-76
2024/03/15 12:28:17;;;;;;;12.02;8.93;;;;;;;;;;10146613;28;20076;-75
2024/03/15 12:33:11;;;;;;;8.63;7.72;;;;;;;;;;10140634;28;20045;-75
2024/03/15 12:38:08;;;;;;;14.07;9.00;;;;;;;;;;10141659;28;20049;-75
2024/03/15 12:43:03;;;;;;;7.53;6.00;;;;;;;;;;10142604;28;20508;-75
2024/03/15 12:47:57;;;;;;;12.07;6.65;;;;;;;;;;10144803;28;20454;-75
2024/03/15 12:52:52;;;;;;;14.43;7.90;;;;;;;;;;10136697;28;20044;-74
2024/03/15 12:57:49;;;;;;;8.85;6.53;;;;;;;;;;10144578;28;20051;-75
2024/03/15 13:02:43;;;;;;;7.95;6.20;;;;;;;;;;10144303;28;20060;-77
2024/03/15 13:07:37;;;;;;;7.78;5.88;;;;;;;;;;10145226;28;20060;-76
2024/03/15 13:12:31;;;;;;;8.02;5.57;;;;;;;;;;10141187;28;20062;-76
2024/03/15 13:17:25;;;;;;;9.75;6.15;;;;;;;;;;10145363;28;20390;-76
2024/03/15 13:22:20;;;;;;;11.60;5.50;;;;;;;;;;10145325;28;20044;-76
2024/03/15 13:27:15;;;;;;;8.30;6.03;;;;;;;;;;10144040;28;20501;-77
2024/03/15 13:32:15;;;;;;;8.90;5.93;;;;;;;;;;10144099;28;20082;-76
2024/03/15 13:37:09;;;;;;;6.78;6.07;;;;;;;;;;10141092;28;20060;-75
2024/03/15 13:42:33;;;;;;;7.03;5.43;;;;;;;;;;10143968;28;20471;-76
2024/03/15 13:53:19;;;;;;;8.65;5.47;;;;;;;;;;10141266;28;20143;-77
2024/03/15 13:58:14;;;;;;;8.20;5.15;;;;;;;;;;10142702;28;20098;-75
2024/03/15 14:03:09;;;;;;;6.57;5.43;;;;;;;;;;10140717;28;20044;-77
2024/03/15 14:08:10;;;;;;;9.85;5.15;;;;;;;;;;10142488;28;20140;-78
2024/03/15 14:13:05;;;;;;;7.70;4.60;;;;;;;;;;10140673;28;20037;-76
2024/03/15 14:17:59;;;;;;;6.03;4.38;;;;;;;;;;10142659;28;20056;-77
2024/03/15 14:22:54;;;;;;;9.43;3.80;;;;;;;;;;10139609;28;20056;-76
2024/03/15 14:27:49;;;;;;;7.53;5.00;;;;;;;;;;10141863;28;20411;-76
2024/03/15 14:32:45;;;;;;;7.30;5.63;;;;;;;;;;10140948;28;20061;-75
2024/03/15 14:37:39;;;;;;;7.22;5.75;;;;;;;;;;10141210;28;20049;-76
2024/03/15 14:42:33;;;;;;;7.53;5.47;;;;;;;;;;10135935;28;20050;-75
2024/03/15 14:47:28;;;;;;;7.15;4.95;;;;;;;;;;10139032;28;20048;-76
2024/03/15 14:52:22;;;;;;;9.85;5.70;;;;;;;;;;10132828;28;20045;-76
2024/03/15 14:57:16;;;;;;;6.70;4.80;;;;;;;;;;10137483;28;20455;-75
2024/03/15 15:02:10;;;;;;;11.95;5.85;;;;;;;;;;10136249;28;20167;-76
2024/03/15 15:07:05;;;;;;;7.00;5.50;;;;;;;;;;10138361;28;20083;-76
2024/03/15 15:11:59;;;;;;;13.35;4.93;;;;;;;;;;10140935;28;20052;-76
2024/03/15 15:16:54;;;;;;;8.82;6.15;;;;;;;;;;10132853;28;20041;-76
2024/03/15 15:21:48;;;;;;;8.77;5.38;;;;;;;;;;10131563;28;21926;-76
2024/03/15 15:26:42;;;;;;;11.90;4.95;;;;;;;;;;10138168;28;20059;-76
2024/03/15 15:31:37;;;;;;;6.70;4.60;;;;;;;;;;10140911;28;20554;-76
2024/03/15 15:36:31;;;;;;;7.88;4.32;;;;;;;;;;10140986;28;20068;-77
2024/03/15 15:41:25;;;;;;;8.15;5.20;;;;;;;;;;10132963;28;20053;-75
2024/03/15 15:46:19;;;;;;;7.95;4.40;;;;;;;;;;10134176;28;20109;-77
2024/03/15 15:51:14;;;;;;;6.70;4.57;;;;;;;;;;10125272;28;20059;-75
2024/03/15 15:56:09;;;;;;;8.20;4.38;;;;;;;;;;10120820;28;20416;-76
2024/03/15 16:01:03;;;;;;;7.95;4.93;;;;;;;;;;10142200;28;20052;-76
2024/03/15 16:05:57;;;;;;;6.97;4.75;;;;;;;;;;10142351;28;20044;-76
2024/03/15 16:10:51;;;;;;;5.82;4.18;;;;;;;;;;10146185;28;20496;-76
2024/03/15 16:15:45;;;;;;;10.27;4.40;;;;;;;;;;10133800;28;20053;-76
2024/03/15 16:20:39;;;;;;;5.20;3.92;;;;;;;;;;10131043;28;20048;-76
2024/03/15 16:25:33;;;;;;;5.68;4.57;;;;;;;;;;10138947;28;20167;-76
2024/03/15 16:30:26;;;;;;;5.82;4.30;;;;;;;;;;10121161;28;20592;-76
2024/03/15 16:35:20;;;;;;;8.02;4.43;;;;;;;;;;10125685;28;20048;-76
2024/03/15 16:40:17;;;;;;;5.47;4.00;;;;;;;;;;10121420;28;20144;-77
2024/03/15 16:45:12;;;;;;;11.70;7.07;;;;;;;;;;10134041;28;20053;-76
2024/03/15 16:50:07;;;;;;;10.15;5.97;;;;;;;;;;10132396;28;20060;-76
2024/03/15 16:55:03;;;;;;;11.05;4.80;;;;;;;;;;10141761;28;20083;-76
2024/03/15 16:59:57;;;;;;;12.35;7.18;;;;;;;;;;10133387;28;20072;-76
2024/03/15 17:04:52;;;;;;;9.43;6.22;;;;;;;;;;10141898;28;20544;-74
2024/03/15 17:09:45;;;;;;;10.15;7.25;;;;;;;;;;10146941;28;20052;-77
2024/03/15 17:14:39;;;;;;;11.73;6.05;;;;;;;;;;10140511;28;20055;-76
2024/03/15 17:19:34;;;;;;;10.02;5.97;;;;;;;;;;10137522;28;20052;-76
2024/03/15 17:24:28;;;;;;;15.30;11.13;;;;;;;;;;10136530;28;20052;-76
2024/03/15 17:29:22;;;;;;;14.45;9.35;;;;;;;;;;10138679;28;20061;-75
2024/03/15 17:34:16;;;;;;;13.93;11.95;;;;;;;;;;10139859;28;20492;-76
2024/03/15 17:39:10;;;;;;;10.48;9.48;;;;;;;;;;10142738;28;20082;-76
2024/03/15 17:44:05;;;;;;;10.43;8.68;;;;;;;;;;10141098;28;20053;-76
2024/03/15 17:48:58;;;;;;;9.10;5.65;;;;;;;;;;10143794;28;20052;-76
2024/03/15 17:53:52;;;;;;;20.70;13.63;;;;;;;;;;10141742;28;20048;-76
2024/03/15 17:58:46;;;;;;;11.77;6.53;;;;;;;;;;10139901;28;20049;-75
2024/03/15 18:03:40;;;;;;;8.27;7.40;;;;;;;;;;10139108;28;20070;-75
2024/03/15 18:08:34;;;;;;;7.82;6.22;;;;;;;;;;10141522;28;20048;-76
2024/03/15 18:13:28;;;;;;;8.02;6.47;;;;;;;;;;10136493;28;20048;-76
2024/03/15 18:18:23;;;;;;;10.40;5.55;;;;;;;;;;10140710;28;20560;-75
2024/03/15 18:23:16;;;;;;;8.90;4.68;;;;;;;;;;10139708;28;20060;-75
2024/03/15 18:28:10;;;;;;;11.13;7.30;;;;;;;;;;10132754;28;20056;-75
2024/03/15 18:33:04;;;;;;;6.72;5.13;;;;;;;;;;10138857;28;20056;-76
2024/03/15 18:37:59;;;;;;;9.50;5.57;;;;;;;;;;10142303;28;20060;-76
2024/03/15 18:42:55;;;;;;;22.48;14.63;;;;;;;;;;10148059;28;20048;-76
2024/03/15 18:47:51;;;;;;;10.35;6.85;;;;;;;;;;10140397;28;20102;-76
2024/03/15 18:52:46;;;;;;;7.78;5.75;;;;;;;;;;10142671;28;20044;-75
2024/03/15 18:57:45;;;;;;;15.15;8.43;;;;;;;;;;10140173;28;20062;-76
2024/03/15 19:02:39;;;;;;;15.68;9.55;;;;;;;;;;10142102;28;20061;-76
2024/03/15 19:07:33;;;;;;;27.05;16.45;;;;;;;;;;10142963;28;20052;-75
2024/03/15 19:12:29;;;;;;;15.18;7.60;;;;;;;;;;10142802;28;20048;-75
2024/03/15 19:17:23;;;;;;;10.38;6.60;;;;;;;;;;10142509;28;20052;-74
2024/03/15 19:22:17;;;;;;;15.15;7.05;;;;;;;;;;10140850;28;20048;-76
2024/03/15 19:27:12;;;;;;;7.43;5.72;;;;;;;;;;10142176;28;20056;-76
2024/03/15 19:32:07;;;;;;;12.70;5.05;;;;;;;;;;10142355;28;20056;-76
2024/03/15 19:37:05;;;;;;;12.55;6.05;;;;;;;;;;10145716;28;20064;-76
2024/03/15 19:41:59;;;;;;;9.80;4.97;;;;;;;;;;10147902;28;20048;-76
2024/03/15 19:46:53;;;;;;;7.22;5.20;;;;;;;;;;10148185;28;20068;-76
2024/03/15 19:51:46;;;;;;;10.00;5.47;;;;;;;;;;10145851;28;20839;-76
2024/03/15 19:56:40;;;;;;;8.32;5.40;;;;;;;;;;10141340;28;20047;-77
2024/03/15 20:01:33;;;;;;;6.25;5.15;;;;;;;;;;10134586;28;20451;-76
2024/03/15 20:06:27;;;;;;;13.32;5.22;;;;;;;;;;10142865;28;20061;-76
2024/03/15 20:11:21;;;;;;;5.30;3.88;;;;;;;;;;10148370;28;20056;-76
2024/03/15 20:16:18;;;;;;;5.40;4.78;;;;;;;;;;10143899;28;20052;-75
2024/03/15 20:21:13;;;;;;;5.18;3.92;;;;;;;;;;10129012;28;20052;-75
2024/03/15 20:26:06;;;;;;;9.30;5.55;;;;;;;;;;10137213;28;20061;-76
2024/03/15 20:31:00;;;;;;;6.05;4.60;;;;;;;;;;10135567;28;20135;-75
2024/03/15 20:35:55;;;;;;;20.40;11.52;;;;;;;;;;10133586;28;20061;-75
2024/03/15 20:40:49;;;;;;;18.42;9.95;;;;;;;;;;10127315;28;20074;-76
2024/03/15 20:45:42;;;;;;;8.32;6.10;;;;;;;;;;10133998;28;20057;-75
2024/03/15 20:50:36;;;;;;;11.25;7.53;;;;;;;;;;10127829;28;20436;-76
2024/03/15 20:55:30;;;;;;;9.82;5.03;;;;;;;;;;10133680;28;20053;-75
2024/03/15 21:00:26;;;;;;;9.88;5.30;;;;;;;;;;10141222;28;20044;-75
2024/03/15 21:05:19;;;;;;;7.15;5.20;;;;;;;;;;10146786;28;20060;-75
2024/03/15 21:10:12;;;;;;;9.02;5.55;;;;;;;;;;10147252;28;20562;-74
2024/03/15 21:15:08;;;;;;;6.88;5.28;;;;;;;;;;10143776;28;20155;-74
2024/03/15 21:20:12;;;;;;;7.53;5.00;;;;;;;;;;10141117;28;20423;-75
2024/03/15 21:25:13;;;;;;;7.50;4.72;;;;;;;;;;10136856;28;20417;-75
2024/03/15 21:30:07;;;;;;;5.65;4.40;;;;;;;;;;10124750;28;20054;-74
2024/03/15 21:35:04;;;;;;;5.13;3.25;;;;;;;;;;10137910;28;20416;-74
2024/03/15 21:39:58;;;;;;;3.15;2.85;;;;;;;;;;10131207;28;20519;-75
2024/03/15 21:44:52;;;;;;;5.15;2.83;;;;;;;;;;10144275;28;20424;-74
2024/03/15 21:49:49;;;;;;;3.17;2.00;;;;;;;;;;10145768;28;20066;-75
2024/03/15 21:54:48;;;;;;;2.65;1.80;;;;;;;;;;10131313;28;20528;-75
2024/03/15 21:59:46;;;;;;;1.95;1.60;;;;;;;;;;10141779;28;20048;-74
2024/03/15 22:04:39;;;;;;;3.40;1.27;;;;;;;;;;10137528;28;20115;-74
2024/03/15 22:09:35;;;;;;;1.20;1.10;;;;;;;;;;10129435;28;20103;-75
2024/03/15 22:14:29;;;;;;;1.45;1.25;;;;;;;;;;10131073;28;20052;-76
2024/03/15 22:19:22;;;;;;;1.33;1.23;;;;;;;;;;10142422;28;20084;-76
2024/03/15 22:24:17;;;;;;;4.05;1.17;;;;;;;;;;10143394;28;20052;-75
2024/03/15 22:29:11;;;;;;;1.92;1.52;;;;;;;;;;10144124;28;20428;-75
2024/03/15 22:34:06;;;;;;;1.67;1.38;;;;;;;;;;10140594;28;20044;-73
2024/03/15 22:39:00;;;;;;;1.15;1.05;;;;;;;;;;10129849;28;20198;-76
2024/03/15 22:43:56;;;;;;;2.28;1.30;;;;;;;;;;10136927;28;20048;-76
2024/03/15 22:48:52;;;;;;;2.53;1.20;;;;;;;;;;10130400;28;20091;-76
2024/03/15 22:53:46;;;;;;;1.40;1.30;;;;;;;;;;10143316;28;20052;-75
2024/03/15 22:58:39;;;;;;;1.67;1.52;;;;;;;;;;10142648;28;20056;-77
2024/03/15 23:03:34;;;;;;;2.75;2.42;;;;;;;;;;10140812;28;20136;-74
2024/03/15 23:08:27;;;;;;;3.05;1.95;;;;;;;;;;10141564;28;20048;-74
2024/03/15 23:13:21;;;;;;;2.03;1.17;;;;;;;;;;10143148;28;20079;-74
2024/03/15 23:18:15;;;;;;;6.32;1.42;;;;;;;;;;10142866;28;20098;-74
2024/03/15 23:23:09;;;;;;;1.33;1.20;;;;;;;;;;10128459;28;20529;-76
2024/03/15 23:28:05;;;;;;;1.05;0.95;;;;;;;;;;10142469;28;20084;-76
2024/03/15 23:32:59;;;;;;;1.30;1.05;;;;;;;;;;10143144;28;20065;-73
2024/03/15 23:37:53;;;;;;;1.23;1.13;;;;;;;;;;10125211;28;20045;-76
2024/03/15 23:42:48;;;;;;;1.67;1.00;;;;;;;;;;10141335;28;20063;-77
2024/03/15 23:47:42;;;;;;;3.17;1.30;;;;;;;;;;10141805;28;20067;-76
2024/03/15 23:52:34;;;;;;;1.00;0.90;;;;;;;;;;10142923;28;20071;-76
2024/03/15 23:57:32;;;;;;;0.95;0.90;;;;;;;;;;10142421;28;20416;-76
